sensor_id;sensor_type;location;lat;lon;timestamp;pressure;altitude;pressure_sealevel;temperature;humidity
57668;BME280;43499;52.366;12.912;2023-01-31T00:01:04;101117.28;;;2.25;95.79
57668;BME280;43499;52.366;12.912;2023-01-31T00:02:05;101103.41;;;2.17;95.61
57668;BME280;43499;52.366;12.912;2023-01-31T00:03:06;101095.25;;;2.14;95.94
57668;BME280;43499;52.366;12.912;2023-01-31T00:04:09;101119.88;;;2.32;95.81
57668;BME280;43499;52.366;12.912;2023-01-31T00:05:11;101131.91;;;2.31;95.35
57668;BME280;43499;52.366;12.912;2023-01-31T00:06:17;101129.31;;;2.31;95.72
57668;BME280;43499;52.366;12.912;2023-01-31T00:07:19;101081.91;;;2.04;95.48
57668;BME280;43499;52.366;12.912;2023-01-31T00:08:20;101127.84;;;2.26;95.58
57668;BME280;43499;52.366;12.912;2023-01-31T00:09:21;101120.06;;;2.26;95.21
57668;BME280;43499;52.366;12.912;2023-01-31T00:10:22;101119.88;;;2.25;95.17
57668;BME280;43499;52.366;12.912;2023-01-31T00:11:25;101129.31;;;2.24;95.11
57668;BME280;43499;52.366;12.912;2023-01-31T00:12:26;101089.31;;;2.00;95.46
57668;BME280;43499;52.366;12.912;2023-01-31T00:13:27;101075.09;;;1.90;95.11
57668;BME280;43499;52.366;12.912;2023-01-31T00:14:28;101115.44;;;2.09;95.43
57668;BME280;43499;52.366;12.912;2023-01-31T00:15:29;101091.91;;;2.00;95.72
57668;BME280;43499;52.366;12.912;2023-01-31T00:16:30;101129.69;;;2.20;94.89
57668;BME280;43499;52.366;12.912;2023-01-31T00:17:32;101129.16;;;2.23;94.91
57668;BME280;43499;52.366;12.912;2023-01-31T00:18:33;101124.13;;;2.24;94.77
57668;BME280;43499;52.366;12.912;2023-01-31T00:19:34;101083.03;;;1.98;94.10
57668;BME280;43499;52.366;12.912;2023-01-31T00:20:35;101134.88;;;2.20;94.14
57668;BME280;43499;52.366;12.912;2023-01-31T00:21:36;101059.53;;;1.90;94.27
57668;BME280;43499;52.366;12.912;2023-01-31T00:22:38;101125.44;;;2.21;94.70
57668;BME280;43499;52.366;12.912;2023-01-31T00:23:40;101096.19;;;2.07;94.72
57668;BME280;43499;52.366;12.912;2023-01-31T00:24:41;101129.50;;;2.26;94.10
57668;BME280;43499;52.366;12.912;2023-01-31T00:25:42;101135.06;;;2.29;94.63
57668;BME280;43499;52.366;12.912;2023-01-31T00:26:43;101136.00;;;2.29;94.26
57668;BME280;43499;52.366;12.912;2023-01-31T00:27:44;101120.06;;;2.19;94.60
57668;BME280;43499;52.366;12.912;2023-01-31T00:28:47;101127.66;;;2.25;93.91
57668;BME280;43499;52.366;12.912;2023-01-31T00:29:52;101120.81;;;2.18;94.13
57668;BME280;43499;52.366;12.912;2023-01-31T00:30:53;101117.13;;;2.16;94.70
57668;BME280;43499;52.366;12.912;2023-01-31T00:31:58;101139.31;;;2.21;94.82
57668;BME280;43499;52.366;12.912;2023-01-31T00:32:59;101148.78;;;2.21;94.65
57668;BME280;43499;52.366;12.912;2023-01-31T00:34:00;101145.44;;;2.29;94.23
57668;BME280;43499;52.366;12.912;2023-01-31T00:35:02;101113.78;;;2.03;94.88
57668;BME280;43499;52.366;12.912;2023-01-31T00:36:04;101133.78;;;2.11;94.84
57668;BME280;43499;52.366;12.912;2023-01-31T00:37:06;101107.81;;;1.96;94.79
57668;BME280;43499;52.366;12.912;2023-01-31T00:38:07;101148.59;;;2.12;95.55
57668;BME280;43499;52.366;12.912;2023-01-31T00:39:09;101152.47;;;2.15;95.39
57668;BME280;43499;52.366;12.912;2023-01-31T00:40:10;101115.78;;;1.91;95.56
57668;BME280;43499;52.366;12.912;2023-01-31T00:41:12;101117.66;;;1.99;96.10
57668;BME280;43499;52.366;12.912;2023-01-31T00:42:14;101163.59;;;2.29;95.53
57668;BME280;43499;52.366;12.912;2023-01-31T00:43:15;101120.41;;;2.08;95.69
57668;BME280;43499;52.366;12.912;2023-01-31T00:44:16;101164.91;;;2.40;95.50
57668;BME280;43499;52.366;12.912;2023-01-31T00:45:17;101153.22;;;2.36;95.07
57668;BME280;43499;52.366;12.912;2023-01-31T00:46:18;101158.22;;;2.35;95.01
57668;BME280;43499;52.366;12.912;2023-01-31T00:47:23;101131.19;;;2.18;95.30
57668;BME280;43499;52.366;12.912;2023-01-31T00:48:24;101150.06;;;2.31;95.01
57668;BME280;43499;52.366;12.912;2023-01-31T00:49:25;101175.63;;;2.43;95.47
57668;BME280;43499;52.366;12.912;2023-01-31T00:50:26;101168.59;;;2.42;95.26
57668;BME280;43499;52.366;12.912;2023-01-31T00:51:29;101137.88;;;2.16;94.99
57668;BME280;43499;52.366;12.912;2023-01-31T00:52:30;101182.50;;;2.35;94.51
57668;BME280;43499;52.366;12.912;2023-01-31T00:53:31;101147.47;;;2.10;94.47
57668;BME280;43499;52.366;12.912;2023-01-31T00:54:32;101138.03;;;2.10;94.62
57668;BME280;43499;52.366;12.912;2023-01-31T00:55:33;101132.50;;;2.00;94.80
57668;BME280;43499;52.366;12.912;2023-01-31T00:56:35;101193.63;;;2.34;94.80
57668;BME280;43499;52.366;12.912;2023-01-31T00:57:37;101170.44;;;2.21;94.06
57668;BME280;43499;52.366;12.912;2023-01-31T00:58:38;101189.16;;;2.26;94.03
57668;BME280;43499;52.366;12.912;2023-01-31T00:59:40;101152.47;;;2.08;94.27
57668;BME280;43499;52.366;12.912;2023-01-31T01:00:41;101152.09;;;1.98;93.45
57668;BME280;43499;52.366;12.912;2023-01-31T01:01:42;101182.28;;;2.19;93.81
57668;BME280;43499;52.366;12.912;2023-01-31T01:02:43;101201.03;;;2.24;93.38
57668;BME280;43499;52.366;12.912;2023-01-31T01:03:44;101201.22;;;2.25;93.30
57668;BME280;43499;52.366;12.912;2023-01-31T01:04:45;101202.13;;;2.26;93.27
57668;BME280;43499;52.366;12.912;2023-01-31T01:05:46;101161.38;;;1.96;93.43
57668;BME280;43499;52.366;12.912;2023-01-31T01:06:47;101205.47;;;2.32;93.00
57668;BME280;43499;52.366;12.912;2023-01-31T01:07:50;101199.75;;;2.27;92.80
57668;BME280;43499;52.366;12.912;2023-01-31T01:08:51;101148.41;;;2.03;92.97
57668;BME280;43499;52.366;12.912;2023-01-31T01:09:53;101174.00;;;2.22;92.46
57668;BME280;43499;52.366;12.912;2023-01-31T01:10:54;101201.97;;;2.46;91.81
57668;BME280;43499;52.366;12.912;2023-01-31T01:11:56;101146.94;;;2.20;91.94
57668;BME280;43499;52.366;12.912;2023-01-31T01:12:57;101161.94;;;2.29;91.98
57668;BME280;43499;52.366;12.912;2023-01-31T01:13:59;101196.22;;;2.56;91.74
57668;BME280;43499;52.366;12.912;2023-01-31T01:15:00;101194.00;;;2.52;91.42
57668;BME280;43499;52.366;12.912;2023-01-31T01:16:06;101168.59;;;2.49;90.98
57668;BME280;43499;52.366;12.912;2023-01-31T01:17:07;101200.66;;;2.64;90.78
57668;BME280;43499;52.366;12.912;2023-01-31T01:18:08;101205.81;;;2.71;90.15
57668;BME280;43499;52.366;12.912;2023-01-31T01:19:16;101208.06;;;2.75;89.66
57668;BME280;43499;52.366;12.912;2023-01-31T01:20:17;101212.34;;;2.75;89.71
57668;BME280;43499;52.366;12.912;2023-01-31T01:21:22;101148.78;;;2.42;89.52
57668;BME280;43499;52.366;12.912;2023-01-31T01:22:23;101136.91;;;2.37;89.58
57668;BME280;43499;52.366;12.912;2023-01-31T01:23:24;101156.94;;;2.45;89.57
57668;BME280;43499;52.366;12.912;2023-01-31T01:24:25;101202.50;;;2.72;89.92
57668;BME280;43499;52.366;12.912;2023-01-31T01:25:27;101201.56;;;2.72;90.51
57668;BME280;43499;52.366;12.912;2023-01-31T01:26:31;101188.78;;;2.66;89.94
57668;BME280;43499;52.366;12.912;2023-01-31T01:27:32;101193.59;;;2.63;89.79
57668;BME280;43499;52.366;12.912;2023-01-31T01:28:34;101180.28;;;2.45;90.55
57668;BME280;43499;52.366;12.912;2023-01-31T01:29:35;101189.72;;;2.45;90.62
57668;BME280;43499;52.366;12.912;2023-01-31T01:30:37;101195.09;;;2.54;90.40
57668;BME280;43499;52.366;12.912;2023-01-31T01:31:40;101163.59;;;2.29;90.87
57668;BME280;43499;52.366;12.912;2023-01-31T01:32:41;101191.41;;;2.44;90.29
57668;BME280;43499;52.366;12.912;2023-01-31T01:33:42;101211.97;;;2.50;91.33
57668;BME280;43499;52.366;12.912;2023-01-31T01:34:44;101194.19;;;2.39;91.04
57668;BME280;43499;52.366;12.912;2023-01-31T01:35:48;101172.31;;;2.15;91.52
57668;BME280;43499;52.366;12.912;2023-01-31T01:36:49;101215.69;;;2.38;91.38
57668;BME280;43499;52.366;12.912;2023-01-31T01:37:50;101182.69;;;2.22;91.10
57668;BME280;43499;52.366;12.912;2023-01-31T01:38:52;101205.47;;;2.32;91.35
57668;BME280;43499;52.366;12.912;2023-01-31T01:39:53;101214.38;;;2.34;91.39
57668;BME280;43499;52.366;12.912;2023-01-31T01:40:54;101199.19;;;2.30;91.38
57668;BME280;43499;52.366;12.912;2023-01-31T01:41:56;101199.19;;;2.30;91.75
57668;BME280;43499;52.366;12.912;2023-01-31T01:42:57;101217.72;;;2.33;91.57
57668;BME280;43499;52.366;12.912;2023-01-31T01:43:59;101224.38;;;2.31;91.57
57668;BME280;43499;52.366;12.912;2023-01-31T01:45:03;101221.41;;;2.28;92.24
57668;BME280;43499;52.366;12.912;2023-01-31T01:46:05;101227.16;;;2.25;92.10
57668;BME280;43499;52.366;12.912;2023-01-31T01:47:15;101220.13;;;2.17;93.20
57668;BME280;43499;52.366;12.912;2023-01-31T01:48:18;101194.88;;;1.94;93.16
57668;BME280;43499;52.366;12.912;2023-01-31T01:49:28;101219.56;;;2.12;93.43
57668;BME280;43499;52.366;12.912;2023-01-31T01:50:34;101222.31;;;2.14;93.99
57668;BME280;43499;52.366;12.912;2023-01-31T01:51:36;101235.13;;;2.20;93.76
57668;BME280;43499;52.366;12.912;2023-01-31T01:52:43;101194.16;;;1.95;94.80
57668;BME280;43499;52.366;12.912;2023-01-31T01:53:49;101220.09;;;2.10;94.28
57668;BME280;43499;52.366;12.912;2023-01-31T01:54:58;101231.22;;;2.16;94.90
57668;BME280;43499;52.366;12.912;2023-01-31T01:56:09;101236.03;;;2.13;95.04
57668;BME280;43499;52.366;12.912;2023-01-31T01:57:14;101212.66;;;1.98;94.79
57668;BME280;43499;52.366;12.912;2023-01-31T01:58:24;101252.16;;;2.18;94.92
57668;BME280;43499;52.366;12.912;2023-01-31T01:59:35;101214.34;;;2.05;95.15
57668;BME280;43499;52.366;12.912;2023-01-31T02:00:38;101215.63;;;1.94;95.14
57668;BME280;43499;52.366;12.912;2023-01-31T02:01:39;101237.66;;;2.05;95.96
57668;BME280;43499;52.366;12.912;2023-01-31T02:02:44;101262.13;;;2.14;95.70
57668;BME280;43499;52.366;12.912;2023-01-31T02:03:47;101254.91;;;2.12;95.61
57668;BME280;43499;52.366;12.912;2023-01-31T02:04:49;101219.88;;;1.87;95.76
57668;BME280;43499;52.366;12.912;2023-01-31T02:05:55;101268.09;;;2.21;95.76
57668;BME280;43499;52.366;12.912;2023-01-31T02:06:57;101222.13;;;1.98;95.75
57668;BME280;43499;52.366;12.912;2023-01-31T02:08:01;101271.06;;;2.24;95.37
57668;BME280;43499;52.366;12.912;2023-01-31T02:09:05;101197.81;;;1.83;95.57
57668;BME280;43499;52.366;12.912;2023-01-31T02:10:20;101239.16;;;2.03;95.85
57668;BME280;43499;52.366;12.912;2023-01-31T02:11:24;101262.13;;;2.14;96.41
57668;BME280;43499;52.366;12.912;2023-01-31T02:12:27;101270.66;;;2.13;96.32
57668;BME280;43499;52.366;12.912;2023-01-31T02:13:30;101215.75;;;1.81;96.19
57668;BME280;43499;52.366;12.912;2023-01-31T02:14:31;101269.34;;;2.10;96.45
57668;BME280;43499;52.366;12.912;2023-01-31T02:15:32;101247.47;;;2.08;95.70
57668;BME280;43499;52.366;12.912;2023-01-31T02:16:34;101258.59;;;1.99;96.30
57668;BME280;43499;52.366;12.912;2023-01-31T02:17:35;101272.69;;;2.09;95.91
57668;BME280;43499;52.366;12.912;2023-01-31T02:18:37;101258.81;;;2.01;96.40
57668;BME280;43499;52.366;12.912;2023-01-31T02:21:38;101263.22;;;2.02;96.29
57668;BME280;43499;52.366;12.912;2023-01-31T02:24:21;101279.31;;;1.99;95.67
57668;BME280;43499;52.366;12.912;2023-01-31T02:25:55;101267.47;;;1.94;96.40
57668;BME280;43499;52.366;12.912;2023-01-31T02:27:17;101260.94;;;1.83;96.62
57668;BME280;43499;52.366;12.912;2023-01-31T02:29:23;101271.88;;;1.81;96.28
57668;BME280;43499;52.366;12.912;2023-01-31T02:30:17;101279.66;;;1.88;96.49
57668;BME280;43499;52.366;12.912;2023-01-31T02:31:47;101270.75;;;1.79;97.00
57668;BME280;43499;52.366;12.912;2023-01-31T02:34:47;101292.63;;;1.81;97.51
57668;BME280;43499;52.366;12.912;2023-01-31T02:37:28;101285.91;;;1.68;98.08
57668;BME280;43499;52.366;12.912;2023-01-31T02:39:02;101290.91;;;1.74;98.23
57668;BME280;43499;52.366;12.912;2023-01-31T02:41:41;101263.00;;;1.44;98.54
57668;BME280;43499;52.366;12.912;2023-01-31T02:45:44;101299.34;;;1.59;98.76
57668;BME280;43499;52.366;12.912;2023-01-31T02:49:35;101289.28;;;1.47;98.83
57668;BME280;43499;52.366;12.912;2023-01-31T02:50:58;101310.09;;;1.54;99.54
57668;BME280;43499;52.366;12.912;2023-01-31T02:52:10;101307.09;;;1.51;99.55
57668;BME280;43499;52.366;12.912;2023-01-31T02:53:23;101309.63;;;1.44;99.63
57668;BME280;43499;52.366;12.912;2023-01-31T02:54:27;101270.88;;;1.24;99.74
57668;BME280;43499;52.366;12.912;2023-01-31T02:55:55;101330.19;;;1.50;99.93
57668;BME280;43499;52.366;12.912;2023-01-31T02:57:18;101299.41;;;1.38;99.67
57668;BME280;43499;52.366;12.912;2023-01-31T02:58:19;101314.06;;;1.45;100.00
57668;BME280;43499;52.366;12.912;2023-01-31T02:59:23;101302.56;;;1.36;100.00
57668;BME280;43499;52.366;12.912;2023-01-31T03:00:32;101316.88;;;1.47;99.84
57668;BME280;43499;52.366;12.912;2023-01-31T03:01:36;101267.88;;;1.21;100.00
57668;BME280;43499;52.366;12.912;2023-01-31T03:02:38;101314.06;;;1.45;100.00
57668;BME280;43499;52.366;12.912;2023-01-31T03:03:39;101260.81;;;1.13;100.00
57668;BME280;43499;52.366;12.912;2023-01-31T03:04:41;101315.03;;;1.46;100.00
57668;BME280;43499;52.366;12.912;2023-01-31T03:05:42;101258.59;;;1.16;100.00
57668;BME280;43499;52.366;12.912;2023-01-31T03:06:58;101319.47;;;1.47;100.00
57668;BME280;43499;52.366;12.912;2023-01-31T03:08:02;101254.84;;;1.06;99.94
57668;BME280;43499;52.366;12.912;2023-01-31T03:09:16;101326.28;;;1.46;100.00
57668;BME280;43499;52.366;12.912;2023-01-31T03:10:41;101302.69;;;1.30;100.00
57668;BME280;43499;52.366;12.912;2023-01-31T03:12:15;101303.97;;;1.27;100.00
57668;BME280;43499;52.366;12.912;2023-01-31T03:14:48;101289.72;;;1.23;100.00
57668;BME280;43499;52.366;12.912;2023-01-31T03:16:10;101317.22;;;1.43;100.00
57668;BME280;43499;52.366;12.912;2023-01-31T03:17:56;101305.72;;;1.41;100.00
57668;BME280;43499;52.366;12.912;2023-01-31T03:19:11;101323.38;;;1.50;100.00
57668;BME280;43499;52.366;12.912;2023-01-31T03:20:23;101325.22;;;1.51;100.00
57668;BME280;43499;52.366;12.912;2023-01-31T03:21:32;101317.47;;;1.51;100.00
57668;BME280;43499;52.366;12.912;2023-01-31T03:22:39;101308.91;;;1.45;100.00
57668;BME280;43499;52.366;12.912;2023-01-31T03:23:44;101253.81;;;1.19;100.00
57668;BME280;43499;52.366;12.912;2023-01-31T03:24:48;101295.38;;;1.41;100.00
57668;BME280;43499;52.366;12.912;2023-01-31T03:25:50;101305.06;;;1.49;100.00
57668;BME280;43499;52.366;12.912;2023-01-31T03:26:55;101288.72;;;1.43;100.00
57668;BME280;43499;52.366;12.912;2023-01-31T03:27:59;101264.00;;;1.25;100.00
57668;BME280;43499;52.366;12.912;2023-01-31T03:29:04;101270.28;;;1.19;100.00
57668;BME280;43499;52.366;12.912;2023-01-31T03:30:13;101301.66;;;1.43;100.00
57668;BME280;43499;52.366;12.912;2023-01-31T03:31:23;101301.34;;;1.47;100.00
57668;BME280;43499;52.366;12.912;2023-01-31T03:32:29;101305.94;;;1.42;100.00
57668;BME280;43499;52.366;12.912;2023-01-31T03:33:38;101322.09;;;1.54;100.00
57668;BME280;43499;52.366;12.912;2023-01-31T03:34:40;101281.06;;;1.30;100.00
57668;BME280;43499;52.366;12.912;2023-01-31T03:35:46;101274.91;;;1.22;100.00
57668;BME280;43499;52.366;12.912;2023-01-31T03:36:56;101330.03;;;1.56;100.00
57668;BME280;43499;52.366;12.912;2023-01-31T03:38:18;101321.94;;;1.60;100.00
57668;BME280;43499;52.366;12.912;2023-01-31T03:40:41;101308.00;;;1.52;100.00
57668;BME280;43499;52.366;12.912;2023-01-31T03:41:52;101316.00;;;1.53;100.00
57668;BME280;43499;52.366;12.912;2023-01-31T03:43:01;101260.13;;;1.21;100.00
57668;BME280;43499;52.366;12.912;2023-01-31T03:47:05;101320.44;;;1.54;100.00
57668;BME280;43499;52.366;12.912;2023-01-31T03:48:12;101315.44;;;1.56;100.00
57668;BME280;43499;52.366;12.912;2023-01-31T03:49:20;101334.03;;;1.74;100.00
57668;BME280;43499;52.366;12.912;2023-01-31T03:50:28;101301.53;;;1.56;100.00
57668;BME280;43499;52.366;12.912;2023-01-31T03:51:32;101317.53;;;1.66;100.00
57668;BME280;43499;52.366;12.912;2023-01-31T03:52:40;101329.81;;;1.81;100.00
57668;BME280;43499;52.366;12.912;2023-01-31T03:54:04;101341.50;;;1.85;100.00
57668;BME280;43499;52.366;12.912;2023-01-31T03:55:13;101302.72;;;1.65;100.00
57668;BME280;43499;52.366;12.912;2023-01-31T03:56:19;101301.38;;;1.61;99.76
57668;BME280;43499;52.366;12.912;2023-01-31T03:57:29;101356.13;;;1.84;99.96
57668;BME280;43499;52.366;12.912;2023-01-31T03:58:35;101295.84;;;1.58;100.00
57668;BME280;43499;52.366;12.912;2023-01-31T03:59:39;101345.56;;;1.83;100.00
57668;BME280;43499;52.366;12.912;2023-01-31T04:00:43;101328.66;;;1.72;100.00
57668;BME280;43499;52.366;12.912;2023-01-31T04:20:38;101331.41;;;2.08;99.35
57668;BME280;43499;52.366;12.912;2023-01-31T04:47:56;101330.47;;;2.08;100.00
57668;BME280;43499;52.366;12.912;2023-01-31T05:00:30;101311.19;;;1.98;100.00
57668;BME280;43499;52.366;12.912;2023-01-31T05:03:27;101325.66;;;2.11;100.00
57668;BME280;43499;52.366;12.912;2023-01-31T05:16:55;101297.06;;;1.89;100.00
57668;BME280;43499;52.366;12.912;2023-01-31T05:18:25;101329.16;;;2.04;100.00
57668;BME280;43499;52.366;12.912;2023-01-31T05:19:51;101388.03;;;2.40;100.00
57668;BME280;43499;52.366;12.912;2023-01-31T05:21:22;101384.72;;;2.41;100.00
57668;BME280;43499;52.366;12.912;2023-01-31T05:26:50;101400.63;;;2.44;99.76
57668;BME280;43499;52.366;12.912;2023-01-31T05:32:25;101349.06;;;2.18;100.00
57668;BME280;43499;52.366;12.912;2023-01-31T05:38:11;101395.47;;;2.51;100.00
57668;BME280;43499;52.366;12.912;2023-01-31T05:40:48;101405.13;;;2.52;99.80
57668;BME280;43499;52.366;12.912;2023-01-31T05:57:06;101346.47;;;2.18;100.00
57668;BME280;43499;52.366;12.912;2023-01-31T06:02:57;101338.47;;;2.09;100.00
57668;BME280;43499;52.366;12.912;2023-01-31T06:05:41;101422.72;;;2.55;100.00
57668;BME280;43499;52.366;12.912;2023-01-31T06:07:57;101334.72;;;2.00;100.00
57668;BME280;43499;52.366;12.912;2023-01-31T06:08:58;101386.50;;;2.27;100.00
57668;BME280;43499;52.366;12.912;2023-01-31T06:09:59;101415.06;;;2.42;100.00
57668;BME280;43499;52.366;12.912;2023-01-31T06:11:01;101383.88;;;2.20;100.00
57668;BME280;43499;52.366;12.912;2023-01-31T06:12:36;101355.25;;;1.98;100.00
57668;BME280;43499;52.366;12.912;2023-01-31T06:33:06;101376.22;;;2.00;100.00
57668;BME280;43499;52.366;12.912;2023-01-31T06:34:11;101442.88;;;2.36;100.00
57668;BME280;43499;52.366;12.912;2023-01-31T06:35:28;101380.59;;;1.94;100.00
57668;BME280;43499;52.366;12.912;2023-01-31T06:36:32;101448.38;;;2.31;100.00
57668;BME280;43499;52.366;12.912;2023-01-31T06:37:34;101424.63;;;2.21;100.00
57668;BME280;43499;52.366;12.912;2023-01-31T06:38:35;101436.53;;;2.26;100.00
57668;BME280;43499;52.366;12.912;2023-01-31T06:39:36;101424.84;;;2.23;100.00
57668;BME280;43499;52.366;12.912;2023-01-31T06:40:37;101398.84;;;2.08;100.00
57668;BME280;43499;52.366;12.912;2023-01-31T06:41:39;101425.59;;;2.22;100.00
57668;BME280;43499;52.366;12.912;2023-01-31T06:42:40;101396.59;;;2.04;100.00
57668;BME280;43499;52.366;12.912;2023-01-31T06:43:41;101435.41;;;2.31;100.00
57668;BME280;43499;52.366;12.912;2023-01-31T06:44:42;101400.88;;;2.11;100.00
57668;BME280;43499;52.366;12.912;2023-01-31T06:45:43;101435.97;;;2.29;100.00
57668;BME280;43499;52.366;12.912;2023-01-31T06:46:49;101435.59;;;2.26;100.00
57668;BME280;43499;52.366;12.912;2023-01-31T06:47:50;101387.09;;;1.97;100.00
57668;BME280;43499;52.366;12.912;2023-01-31T06:49:15;101434.50;;;2.31;100.00
57668;BME280;43499;52.366;12.912;2023-01-31T07:12:01;101432.53;;;2.50;100.00
57668;BME280;43499;52.366;12.912;2023-01-31T07:24:45;101445.75;;;2.66;100.00
57668;BME280;43499;52.366;12.912;2023-01-31T07:36:01;101382.13;;;2.55;100.00
57668;BME280;43499;52.366;12.912;2023-01-31T07:44:14;101376.22;;;2.64;100.00
57668;BME280;43499;52.366;12.912;2023-01-31T07:49:35;101427.47;;;2.93;100.00
57668;BME280;43499;52.366;12.912;2023-01-31T07:53:49;101325.94;;;2.41;100.00
57668;BME280;43499;52.366;12.912;2023-01-31T08:04:38;101413.56;;;3.00;100.00
57668;BME280;43499;52.366;12.912;2023-01-31T08:07:17;101406.31;;;2.98;100.00
57668;BME280;43499;52.366;12.912;2023-01-31T08:26:32;101287.88;;;3.50;100.00
57668;BME280;43499;52.366;12.912;2023-01-31T08:33:25;101309.38;;;3.64;100.00
57668;BME280;43499;52.366;12.912;2023-01-31T08:52:04;101335.97;;;3.47;100.00
57668;BME280;43499;52.366;12.912;2023-01-31T09:00:08;101354.06;;;3.76;99.35
57668;BME280;43499;52.366;12.912;2023-01-31T09:06:23;101309.03;;;3.53;99.97
57668;BME280;43499;52.366;12.912;2023-01-31T09:11:52;101322.88;;;3.76;98.43
57668;BME280;43499;52.366;12.912;2023-01-31T09:33:22;101304.03;;;4.00;96.31
57668;BME280;43499;52.366;12.912;2023-01-31T09:43:21;101321.28;;;4.07;95.34
57668;BME280;43499;52.366;12.912;2023-01-31T10:12:28;101290.19;;;4.15;99.16
57668;BME280;43499;52.366;12.912;2023-01-31T10:13:35;101266.28;;;4.04;98.68
57668;BME280;43499;52.366;12.912;2023-01-31T10:14:44;101278.41;;;4.26;98.21
57668;BME280;43499;52.366;12.912;2023-01-31T10:15:53;101278.19;;;4.32;98.08
57668;BME280;43499;52.366;12.912;2023-01-31T10:17:02;101283.69;;;4.42;97.55
57668;BME280;43499;52.366;12.912;2023-01-31T10:18:21;101260.13;;;4.33;96.80
57668;BME280;43499;52.366;12.912;2023-01-31T10:19:28;101270.06;;;4.52;96.09
57668;BME280;43499;52.366;12.912;2023-01-31T10:21:05;101278.78;;;4.53;94.68
57668;BME280;43499;52.366;12.912;2023-01-31T10:22:09;101275.38;;;4.61;94.88
57668;BME280;43499;52.366;12.912;2023-01-31T10:23:23;101269.47;;;4.78;95.05
57668;BME280;43499;52.366;12.912;2023-01-31T10:24:38;101269.00;;;4.89;94.36
57668;BME280;43499;52.366;12.912;2023-01-31T10:25:50;101247.72;;;4.77;93.79
57668;BME280;43499;52.366;12.912;2023-01-31T10:26:56;101226.22;;;4.71;92.71
57668;BME280;43499;52.366;12.912;2023-01-31T10:28:19;101248.50;;;4.92;92.95
57668;BME280;43499;52.366;12.912;2023-01-31T10:29:32;101236.91;;;4.82;92.66
57668;BME280;43499;52.366;12.912;2023-01-31T10:30:42;101233.34;;;4.81;91.98
57668;BME280;43499;52.366;12.912;2023-01-31T10:31:55;101215.78;;;4.71;91.75
57668;BME280;43499;52.366;12.912;2023-01-31T10:33:15;101237.75;;;4.89;92.18
57668;BME280;43499;52.366;12.912;2023-01-31T10:34:25;101223.75;;;4.73;92.11
57668;BME280;43499;52.366;12.912;2023-01-31T10:35:32;101239.56;;;4.74;92.47
57668;BME280;43499;52.366;12.912;2023-01-31T10:36:41;101213.19;;;4.71;92.35
57668;BME280;43499;52.366;12.912;2023-01-31T10:37:54;101226.81;;;4.85;93.26
57668;BME280;43499;52.366;12.912;2023-01-31T10:39:09;101232.22;;;4.86;92.09
57668;BME280;43499;52.366;12.912;2023-01-31T10:40:19;101223.53;;;4.78;92.05
57668;BME280;43499;52.366;12.912;2023-01-31T10:41:46;101240.34;;;4.89;91.92
57668;BME280;43499;52.366;12.912;2023-01-31T10:42:59;101238.53;;;4.88;92.17
57668;BME280;43499;52.366;12.912;2023-01-31T10:44:06;101208.50;;;4.76;92.18
57668;BME280;43499;52.366;12.912;2023-01-31T10:45:17;101178.31;;;4.78;91.15
57668;BME280;43499;52.366;12.912;2023-01-31T10:46:19;101222.56;;;5.01;90.67
57668;BME280;43499;52.366;12.912;2023-01-31T10:47:37;101177.31;;;5.01;90.19
57668;BME280;43499;52.366;12.912;2023-01-31T10:48:41;101220.47;;;5.38;89.86
57668;BME280;43499;52.366;12.912;2023-01-31T10:49:45;101211.84;;;5.46;88.65
57668;BME280;43499;52.366;12.912;2023-01-31T10:52:48;101191.06;;;5.23;88.23
57668;BME280;43499;52.366;12.912;2023-01-31T10:54:16;101214.16;;;5.36;88.63
57668;BME280;43499;52.366;12.912;2023-01-31T10:55:42;101159.94;;;5.08;89.00
57668;BME280;43499;52.366;12.912;2023-01-31T10:56:46;101161.28;;;5.05;88.30
57668;BME280;43499;52.366;12.912;2023-01-31T10:57:49;101205.69;;;5.30;89.28
57668;BME280;43499;52.366;12.912;2023-01-31T10:58:50;101195.84;;;5.27;89.76
57668;BME280;43499;52.366;12.912;2023-01-31T10:59:52;101207.94;;;5.27;89.96
57668;BME280;43499;52.366;12.912;2023-01-31T11:00:53;101176.16;;;5.06;90.00
57668;BME280;43499;52.366;12.912;2023-01-31T11:01:54;101189.03;;;5.20;90.16
57668;BME280;43499;52.366;12.912;2023-01-31T11:02:56;101172.22;;;5.09;90.37
57668;BME280;43499;52.366;12.912;2023-01-31T11:04:00;101157.84;;;4.97;90.27
57668;BME280;43499;52.366;12.912;2023-01-31T11:05:01;101181.97;;;5.19;90.52
57668;BME280;43499;52.366;12.912;2023-01-31T11:06:03;101175.91;;;5.12;90.91
57668;BME280;43499;52.366;12.912;2023-01-31T11:07:06;101179.53;;;5.21;91.90
57668;BME280;43499;52.366;12.912;2023-01-31T11:08:30;101187.28;;;5.44;90.33
57668;BME280;43499;52.366;12.912;2023-01-31T11:09:38;101170.28;;;5.48;90.63
57668;BME280;43499;52.366;12.912;2023-01-31T11:10:50;101171.03;;;5.47;88.52
57668;BME280;43499;52.366;12.912;2023-01-31T11:12:00;101155.47;;;5.55;88.73
57668;BME280;43499;52.366;12.912;2023-01-31T11:13:03;101173.84;;;5.73;87.99
57668;BME280;43499;52.366;12.912;2023-01-31T11:14:09;101164.38;;;5.82;88.64
57668;BME280;43499;52.366;12.912;2023-01-31T11:15:18;101168.00;;;5.76;87.47
57668;BME280;43499;52.366;12.912;2023-01-31T11:16:19;101152.28;;;5.83;87.75
57668;BME280;43499;52.366;12.912;2023-01-31T11:17:21;101140.69;;;5.97;88.20
57668;BME280;43499;52.366;12.912;2023-01-31T11:18:28;101131.09;;;6.05;87.83
57668;BME280;43499;52.366;12.912;2023-01-31T11:19:34;101133.28;;;5.93;86.95
57668;BME280;43499;52.366;12.912;2023-01-31T11:20:43;101133.00;;;5.90;87.25
57668;BME280;43499;52.366;12.912;2023-01-31T11:21:52;101131.97;;;5.96;86.80